sensor_id;sensor_type;location;lat;lon;timestamp;P1;durP1;ratioP1;P2;durP2;ratioP2
6354;SDS011;3210;48.708;9.030;2024-03-02T08:46:36;13.57;;;6.57;;
6354;SDS011;3210;48.708;9.030;2024-03-02T09:10:23;5.33;;;4.30;;
6354;SDS011;3210;48.708;9.030;2024-03-02T09:13:09;7.83;;;5.67;;
6354;SDS011;3210;48.708;9.030;2024-03-02T09:15:40;5.70;;;4.40;;
6354;SDS011;3210;48.708;9.030;2024-03-02T09:18:46;7.67;;;5.30;;
6354;SDS011;3210;48.708;9.030;2024-03-02T09:21:28;7.33;;;5.37;;
6354;SDS011;3210;48.708;9.030;2024-03-02T09:24:04;5.57;;;4.77;;
6354;SDS011;3210;48.708;9.030;2024-03-02T09:27:42;8.13;;;4.83;;
6354;SDS011;3210;48.708;9.030;2024-03-02T09:30:26;4.97;;;4.30;;
6354;SDS011;3210;48.708;9.030;2024-03-02T09:33:15;8.27;;;3.90;;
6354;SDS011;3210;48.708;9.030;2024-03-02T09:36:23;4.53;;;3.53;;
6354;SDS011;3210;48.708;9.030;2024-03-02T10:06:20;2.83;;;2.20;;
6354;SDS011;3210;48.708;9.030;2024-03-02T10:08:49;3.17;;;2.30;;
6354;SDS011;3210;48.708;9.030;2024-03-02T10:12:01;2.90;;;2.00;;
6354;SDS011;3210;48.708;9.030;2024-03-02T10:14:31;2.40;;;1.70;;
6354;SDS011;3210;48.708;9.030;2024-03-02T10:17:21;4.10;;;2.83;;
6354;SDS011;3210;48.708;9.030;2024-03-02T10:19:59;2.50;;;2.30;;
6354;SDS011;3210;48.708;9.030;2024-03-02T10:23:15;2.13;;;1.97;;
6354;SDS011;3210;48.708;9.030;2024-03-02T10:35:33;1.23;;;1.13;;
6354;SDS011;3210;48.708;9.030;2024-03-02T10:37:51;3.57;;;1.40;;
6354;SDS011;3210;48.708;9.030;2024-03-02T10:40:34;3.70;;;1.80;;
6354;SDS011;3210;48.708;9.030;2024-03-02T10:43:07;2.90;;;1.50;;
6354;SDS011;3210;48.708;9.030;2024-03-02T10:45:59;2.37;;;1.00;;
6354;SDS011;3210;48.708;9.030;2024-03-02T10:48:28;1.60;;;1.20;;
6354;SDS011;3210;48.708;9.030;2024-03-02T10:54:07;1.63;;;0.70;;
6354;SDS011;3210;48.708;9.030;2024-03-02T10:56:49;1.33;;;1.23;;
6354;SDS011;3210;48.708;9.030;2024-03-02T10:59:21;0.80;;;0.67;;
6354;SDS011;3210;48.708;9.030;2024-03-02T11:02:15;1.50;;;1.13;;
6354;SDS011;3210;48.708;9.030;2024-03-02T11:04:45;0.80;;;0.53;;
6354;SDS011;3210;48.708;9.030;2024-03-02T11:07:25;1.10;;;0.60;;
6354;SDS011;3210;48.708;9.030;2024-03-02T11:12:59;1.00;;;0.70;;
6354;SDS011;3210;48.708;9.030;2024-03-02T11:15:49;0.60;;;0.60;;
6354;SDS011;3210;48.708;9.030;2024-03-02T11:18:45;1.00;;;0.83;;
6354;SDS011;3210;48.708;9.030;2024-03-02T11:21:22;0.67;;;0.53;;
6354;SDS011;3210;48.708;9.030;2024-03-02T11:23:51;0.70;;;0.50;;
6354;SDS011;3210;48.708;9.030;2024-03-02T11:26:18;2.20;;;0.40;;
6354;SDS011;3210;48.708;9.030;2024-03-02T11:28:49;0.60;;;0.40;;
6354;SDS011;3210;48.708;9.030;2024-03-02T11:31:22;1.00;;;0.90;;
6354;SDS011;3210;48.708;9.030;2024-03-02T11:33:50;0.80;;;0.40;;
6354;SDS011;3210;48.708;9.030;2024-03-02T11:36:22;0.80;;;0.60;;
6354;SDS011;3210;48.708;9.030;2024-03-02T11:39:14;2.40;;;0.60;;
6354;SDS011;3210;48.708;9.030;2024-03-02T11:42:09;1.10;;;0.60;;
6354;SDS011;3210;48.708;9.030;2024-03-02T11:44:55;2.40;;;1.97;;
6354;SDS011;3210;48.708;9.030;2024-03-02T11:48:00;0.70;;;0.70;;
6354;SDS011;3210;48.708;9.030;2024-03-02T11:50:42;0.80;;;0.70;;
6354;SDS011;3210;48.708;9.030;2024-03-02T11:56:30;2.07;;;0.80;;
6354;SDS011;3210;48.708;9.030;2024-03-02T11:57:36;1.43;;;0.70;;
6354;SDS011;3210;48.708;9.030;2024-03-02T12:03:00;0.80;;;0.50;;
6354;SDS011;3210;48.708;9.030;2024-03-02T12:05:43;1.10;;;0.80;;
6354;SDS011;3210;48.708;9.030;2024-03-02T12:08:30;0.97;;;0.60;;
6354;SDS011;3210;48.708;9.030;2024-03-02T12:11:16;0.80;;;0.50;;
6354;SDS011;3210;48.708;9.030;2024-03-02T12:14:22;0.60;;;0.57;;
6354;SDS011;3210;48.708;9.030;2024-03-02T12:16:58;1.93;;;0.70;;
6354;SDS011;3210;48.708;9.030;2024-03-02T12:23:04;1.00;;;0.53;;
6354;SDS011;3210;48.708;9.030;2024-03-02T12:25:54;0.80;;;0.70;;
6354;SDS011;3210;48.708;9.030;2024-03-02T12:28:45;1.20;;;0.70;;
6354;SDS011;3210;48.708;9.030;2024-03-02T12:44:21;1.27;;;0.57;;
6354;SDS011;3210;48.708;9.030;2024-03-02T12:50:16;0.67;;;0.50;;
6354;SDS011;3210;48.708;9.030;2024-03-02T12:53:01;1.50;;;0.87;;
6354;SDS011;3210;48.708;9.030;2024-03-02T12:58:38;1.57;;;0.90;;
6354;SDS011;3210;48.708;9.030;2024-03-02T13:01:36;1.00;;;0.67;;
6354;SDS011;3210;48.708;9.030;2024-03-02T13:04:03;1.47;;;0.90;;
6354;SDS011;3210;48.708;9.030;2024-03-02T13:06:55;1.27;;;1.17;;
6354;SDS011;3210;48.708;9.030;2024-03-02T13:09:23;1.40;;;1.30;;
6354;SDS011;3210;48.708;9.030;2024-03-02T13:12:11;1.03;;;0.93;;
6354;SDS011;3210;48.708;9.030;2024-03-02T13:30:51;1.07;;;0.70;;
6354;SDS011;3210;48.708;9.030;2024-03-02T13:33:27;0.67;;;0.57;;
6354;SDS011;3210;48.708;9.030;2024-03-02T13:35:55;2.43;;;0.83;;
6354;SDS011;3210;48.708;9.030;2024-03-02T13:47:47;1.10;;;0.47;;
6354;SDS011;3210;48.708;9.030;2024-03-02T13:50:39;0.80;;;0.60;;
6354;SDS011;3210;48.708;9.030;2024-03-02T13:53:28;1.33;;;0.70;;
6354;SDS011;3210;48.708;9.030;2024-03-02T13:56:37;0.80;;;0.60;;
6354;SDS011;3210;48.708;9.030;2024-03-02T13:59:40;1.90;;;0.80;;
6354;SDS011;3210;48.708;9.030;2024-03-02T14:12:47;0.80;;;0.70;;
6354;SDS011;3210;48.708;9.030;2024-03-02T14:18:50;0.70;;;0.60;;
6354;SDS011;3210;48.708;9.030;2024-03-02T14:22:00;1.27;;;0.80;;
6354;SDS011;3210;48.708;9.030;2024-03-02T14:24:59;1.80;;;1.70;;
6354;SDS011;3210;48.708;9.030;2024-03-02T14:33:35;2.70;;;0.50;;
6354;SDS011;3210;48.708;9.030;2024-03-02T14:36:03;1.63;;;0.53;;
6354;SDS011;3210;48.708;9.030;2024-03-02T14:39:19;1.00;;;0.70;;
6354;SDS011;3210;48.708;9.030;2024-03-02T14:45:12;0.97;;;0.60;;
6354;SDS011;3210;48.708;9.030;2024-03-02T14:47:41;1.10;;;0.70;;
6354;SDS011;3210;48.708;9.030;2024-03-02T14:50:24;3.23;;;0.90;;
6354;SDS011;3210;48.708;9.030;2024-03-02T14:52:59;1.67;;;0.80;;
6354;SDS011;3210;48.708;9.030;2024-03-02T14:59:00;1.17;;;0.70;;
6354;SDS011;3210;48.708;9.030;2024-03-02T15:04:20;2.23;;;1.10;;
6354;SDS011;3210;48.708;9.030;2024-03-02T15:10:28;1.33;;;1.00;;
6354;SDS011;3210;48.708;9.030;2024-03-02T15:15:47;3.57;;;1.10;;
6354;SDS011;3210;48.708;9.030;2024-03-02T15:24:38;1.23;;;1.10;;
6354;SDS011;3210;48.708;9.030;2024-03-02T15:27:28;2.50;;;1.00;;
6354;SDS011;3210;48.708;9.030;2024-03-02T15:29:55;1.83;;;1.37;;
6354;SDS011;3210;48.708;9.030;2024-03-02T15:32:43;1.10;;;0.87;;
6354;SDS011;3210;48.708;9.030;2024-03-02T15:35:12;1.20;;;1.00;;
6354;SDS011;3210;48.708;9.030;2024-03-02T15:37:53;1.33;;;1.00;;
6354;SDS011;3210;48.708;9.030;2024-03-02T15:40:21;1.03;;;0.70;;
6354;SDS011;3210;48.708;9.030;2024-03-02T15:55:15;0.70;;;0.70;;
6354;SDS011;3210;48.708;9.030;2024-03-02T16:07:05;1.40;;;1.10;;
6354;SDS011;3210;48.708;9.030;2024-03-02T16:09:34;0.90;;;0.70;;
6354;SDS011;3210;48.708;9.030;2024-03-02T16:15:20;1.37;;;0.77;;
6354;SDS011;3210;48.708;9.030;2024-03-02T16:17:47;1.33;;;1.23;;
6354;SDS011;3210;48.708;9.030;2024-03-02T16:20:14;1.87;;;1.00;;
6354;SDS011;3210;48.708;9.030;2024-03-02T16:22:41;7.97;;;1.10;;
6354;SDS011;3210;48.708;9.030;2024-03-02T16:25:28;1.80;;;1.03;;
6354;SDS011;3210;48.708;9.030;2024-03-02T16:27:58;2.13;;;1.03;;
6354;SDS011;3210;48.708;9.030;2024-03-02T16:30:27;5.03;;;1.00;;
6354;SDS011;3210;48.708;9.030;2024-03-02T16:32:56;2.80;;;1.40;;
6354;SDS011;3210;48.708;9.030;2024-03-02T16:35:39;6.07;;;1.90;;
6354;SDS011;3210;48.708;9.030;2024-03-02T16:38:22;2.83;;;1.03;;
6354;SDS011;3210;48.708;9.030;2024-03-02T16:41:06;3.90;;;0.87;;
6354;SDS011;3210;48.708;9.030;2024-03-02T16:43:53;1.63;;;0.83;;
6354;SDS011;3210;48.708;9.030;2024-03-02T17:03:18;3.23;;;1.07;;
6354;SDS011;3210;48.708;9.030;2024-03-02T17:06:02;3.13;;;1.60;;
6354;SDS011;3210;48.708;9.030;2024-03-02T17:13:46;1.60;;;1.50;;
6354;SDS011;3210;48.708;9.030;2024-03-02T17:16:24;2.17;;;1.37;;
6354;SDS011;3210;48.708;9.030;2024-03-02T17:18:52;2.37;;;1.40;;
6354;SDS011;3210;48.708;9.030;2024-03-02T17:21:33;3.53;;;2.40;;
6354;SDS011;3210;48.708;9.030;2024-03-02T17:24:51;1.90;;;1.77;;
6354;SDS011;3210;48.708;9.030;2024-03-02T17:27:45;1.53;;;1.40;;
6354;SDS011;3210;48.708;9.030;2024-03-02T17:30:42;2.83;;;1.80;;
6354;SDS011;3210;48.708;9.030;2024-03-02T17:36:18;5.93;;;2.13;;
6354;SDS011;3210;48.708;9.030;2024-03-02T17:44:04;3.33;;;3.03;;
6354;SDS011;3210;48.708;9.030;2024-03-02T18:33:47;14.47;;;9.47;;
6354;SDS011;3210;48.708;9.030;2024-03-02T18:36:22;19.63;;;10.87;;
6354;SDS011;3210;48.708;9.030;2024-03-02T18:38:49;19.90;;;11.00;;
6354;SDS011;3210;48.708;9.030;2024-03-02T18:43:54;19.70;;;11.53;;
6354;SDS011;3210;48.708;9.030;2024-03-02T18:46:27;16.70;;;10.20;;
6354;SDS011;3210;48.708;9.030;2024-03-02T19:10:44;25.93;;;14.10;;
6354;SDS011;3210;48.708;9.030;2024-03-02T19:13:11;27.47;;;14.60;;
6354;SDS011;3210;48.708;9.030;2024-03-02T20:25:13;34.50;;;17.40;;
6354;SDS011;3210;48.708;9.030;2024-03-02T20:27:41;27.03;;;16.97;;
6354;SDS011;3210;48.708;9.030;2024-03-02T20:43:11;23.80;;;15.07;;
6354;SDS011;3210;48.708;9.030;2024-03-02T20:45:38;29.70;;;16.60;;
6354;SDS011;3210;48.708;9.030;2024-03-02T20:53:16;30.53;;;17.10;;
6354;SDS011;3210;48.708;9.030;2024-03-02T20:55:44;24.10;;;15.20;;
6354;SDS011;3210;48.708;9.030;2024-03-02T20:58:13;30.93;;;16.43;;
6354;SDS011;3210;48.708;9.030;2024-03-02T21:00:53;32.40;;;16.10;;
6354;SDS011;3210;48.708;9.030;2024-03-02T21:03:44;31.60;;;16.60;;
6354;SDS011;3210;48.708;9.030;2024-03-02T21:06:15;31.33;;;16.43;;
6354;SDS011;3210;48.708;9.030;2024-03-02T21:08:58;29.03;;;17.60;;
6354;SDS011;3210;48.708;9.030;2024-03-02T21:11:40;31.00;;;17.80;;
6354;SDS011;3210;48.708;9.030;2024-03-02T21:36:28;31.57;;;18.40;;
6354;SDS011;3210;48.708;9.030;2024-03-02T21:38:57;35.37;;;18.20;;
6354;SDS011;3210;48.708;9.030;2024-03-02T21:51:48;27.40;;;17.43;;
6354;SDS011;3210;48.708;9.030;2024-03-02T21:54:17;30.10;;;16.33;;
6354;SDS011;3210;48.708;9.030;2024-03-02T22:01:52;33.07;;;18.30;;
6354;SDS011;3210;48.708;9.030;2024-03-02T22:28:57;38.20;;;21.90;;
6354;SDS011;3210;48.708;9.030;2024-03-02T22:31:43;32.73;;;18.63;;
6354;SDS011;3210;48.708;9.030;2024-03-02T22:34:21;35.53;;;18.70;;
6354;SDS011;3210;48.708;9.030;2024-03-02T22:37:26;29.73;;;17.97;;
6354;SDS011;3210;48.708;9.030;2024-03-02T22:40:04;31.03;;;18.50;;
6354;SDS011;3210;48.708;9.030;2024-03-02T22:42:50;35.57;;;17.80;;
6354;SDS011;3210;48.708;9.030;2024-03-02T22:45:55;31.00;;;16.90;;
6354;SDS011;3210;48.708;9.030;2024-03-02T22:48:24;26.23;;;15.40;;
6354;SDS011;3210;48.708;9.030;2024-03-02T22:51:19;39.00;;;18.30;;
6354;SDS011;3210;48.708;9.030;2024-03-02T22:54:19;30.07;;;18.03;;
6354;SDS011;3210;48.708;9.030;2024-03-02T22:57:03;33.87;;;17.80;;
6354;SDS011;3210;48.708;9.030;2024-03-02T23:05:51;42.10;;;20.47;;
6354;SDS011;3210;48.708;9.030;2024-03-02T23:08:28;42.23;;;21.90;;
6354;SDS011;3210;48.708;9.030;2024-03-02T23:11:05;48.30;;;23.10;;
6354;SDS011;3210;48.708;9.030;2024-03-02T23:13:36;41.27;;;19.13;;
6354;SDS011;3210;48.708;9.030;2024-03-02T23:16:13;37.03;;;20.10;;
6354;SDS011;3210;48.708;9.030;2024-03-02T23:19:02;36.97;;;21.30;;
6354;SDS011;3210;48.708;9.030;2024-03-02T23:21:39;45.70;;;22.43;;
6354;SDS011;3210;48.708;9.030;2024-03-02T23:24:11;42.90;;;23.60;;
6354;SDS011;3210;48.708;9.030;2024-03-02T23:26:55;41.83;;;22.73;;
6354;SDS011;3210;48.708;9.030;2024-03-02T23:29:41;45.23;;;23.37;;
6354;SDS011;3210;48.708;9.030;2024-03-02T23:32:33;40.97;;;23.60;;
6354;SDS011;3210;48.708;9.030;2024-03-02T23:35:22;49.40;;;23.27;;
6354;SDS011;3210;48.708;9.030;2024-03-02T23:37:56;43.43;;;23.50;;
6354;SDS011;3210;48.708;9.030;2024-03-02T23:40:28;43.27;;;23.43;;
6354;SDS011;3210;48.708;9.030;2024-03-02T23:43:16;39.63;;;20.90;;
6354;SDS011;3210;48.708;9.030;2024-03-02T23:45:58;39.43;;;23.03;;
